North, South Carolina
Current Conditions -  °F | °C
As of 7:53 AM on Thursday 30 Oct 2014 (Local Time) from KOGB Reporting Station
Clear Clear  
Wind Chill: 56°   Ceiling: Unl
Heat Index: 56°   Visibility: 10mi
Dew Point: 51°   Wind: 3mph
Humidity: 84%   Direction: 30°NNE
Pressure: 30.01"   Gusts: NA
Location:  33.62°N, 81.1°W
Report Text: KOGB 301153Z AUTO 03003KT 10SM CLR 13/11 A3001 RMK AO2 SLP159 60002 70008 T01330106 10194 20133 53011
Loading
Personal Weather Stations






























Interactive Weather Map
Tropical Storm Tracking
New forecast layout! Learn more

10-Day Weather Forecast

Advertisements
Track Severe Weather on mobile